createdAt,value
2023-02-09T00:00:25.618Z,35.27
2023-02-09T00:01:47.450Z,35.10
2023-02-09T00:02:49.426Z,35.20
2023-02-09T00:03:52.567Z,35.79
2023-02-09T00:04:54.861Z,34.51
2023-02-09T00:06:00.391Z,34.15
2023-02-09T00:07:02.922Z,35.40
2023-02-09T00:08:04.786Z,39.79
2023-02-09T00:09:06.636Z,43.91
2023-02-09T00:10:08.899Z,39.13
2023-02-09T00:11:20.864Z,38.51
2023-02-09T00:12:41.696Z,37.01
2023-02-09T00:13:44.553Z,37.21
2023-02-09T00:14:46.359Z,36.15
2023-02-09T00:15:55.341Z,37.67
2023-02-09T00:16:57.154Z,34.21
2023-02-09T00:17:59.011Z,35.05
2023-02-09T00:19:01.056Z,35.26
2023-02-09T00:20:08.149Z,35.04
2023-02-09T00:21:11.918Z,35.01
2023-02-09T00:22:15.020Z,36.09
2023-02-09T00:23:16.868Z,37.34
2023-02-09T00:24:19.042Z,36.03
2023-02-09T00:25:20.867Z,35.55
2023-02-09T00:26:22.856Z,37.35
2023-02-09T00:27:26.426Z,37.25
2023-02-09T00:28:28.583Z,38.39
2023-02-09T00:29:30.592Z,40.28
2023-02-09T00:30:32.556Z,40.14
2023-02-09T00:31:35.898Z,38.06
2023-02-09T00:32:39.169Z,39.00
2023-02-09T00:33:41.484Z,37.73
2023-02-09T00:34:43.844Z,38.28
2023-02-09T00:35:45.852Z,38.22
2023-02-09T00:36:47.715Z,50.41
2023-02-09T00:37:49.634Z,46.31
2023-02-09T00:38:51.485Z,51.27
2023-02-09T00:39:53.372Z,50.73
2023-02-09T00:40:55.203Z,50.55
2023-02-09T00:42:06.464Z,48.69
2023-02-09T00:43:09.826Z,45.32
2023-02-09T00:44:12.608Z,47.50
2023-02-09T00:45:14.663Z,43.92
2023-02-09T00:46:16.460Z,43.19
2023-02-09T00:47:18.927Z,43.76
2023-02-09T00:48:21.589Z,41.99
2023-02-09T00:49:24.033Z,41.17
2023-02-09T00:50:28.319Z,41.33
2023-02-09T00:51:30.411Z,45.18
2023-02-09T00:52:33.404Z,49.87
2023-02-09T00:53:35.373Z,50.75
2023-02-09T00:54:37.768Z,48.66
2023-02-09T00:55:39.735Z,49.40
2023-02-09T00:56:42.205Z,46.49
2023-02-09T00:57:44.481Z,42.50
2023-02-09T00:58:46.498Z,43.09
2023-02-09T00:59:48.361Z,41.94
2023-02-09T01:00:50.317Z,41.36
2023-02-09T01:01:52.451Z,42.29
2023-02-09T01:02:56.996Z,41.62
2023-02-09T01:03:58.814Z,40.80
2023-02-09T01:05:01.218Z,42.26
2023-02-09T01:06:03.360Z,44.51
2023-02-09T01:07:05.162Z,45.49
2023-02-09T01:08:07.437Z,42.86
2023-02-09T01:09:09.582Z,49.54
2023-02-09T01:10:13.221Z,50.07
2023-02-09T01:11:16.490Z,45.43
2023-02-09T01:12:18.820Z,44.72
2023-02-09T01:13:20.778Z,45.28
2023-02-09T01:14:22.633Z,45.57
2023-02-09T01:15:24.564Z,50.26
2023-02-09T01:16:31.694Z,51.59
2023-02-09T01:17:34.072Z,50.88
2023-02-09T01:18:36.774Z,50.10
2023-02-09T01:19:38.617Z,51.33
2023-02-09T01:20:42.092Z,50.47
2023-02-09T01:21:47.685Z,48.42
2023-02-09T01:22:50.090Z,47.70
2023-02-09T01:23:52.154Z,48.02
2023-02-09T01:24:54.016Z,48.26
2023-02-09T01:26:08.112Z,48.07
2023-02-09T01:27:09.923Z,46.95
2023-02-09T01:28:12.218Z,46.98
2023-02-09T01:29:17.708Z,43.41
2023-02-09T01:30:19.732Z,44.44
2023-02-09T01:31:26.392Z,44.79
2023-02-09T01:32:28.636Z,44.05
2023-02-09T01:33:31.724Z,43.53
2023-02-09T01:34:33.708Z,44.65
2023-02-09T01:35:35.647Z,44.20
2023-02-09T01:36:37.442Z,45.01
2023-02-09T01:37:39.563Z,46.55
2023-02-09T01:38:43.203Z,44.93
2023-02-09T01:39:45.118Z,45.82
2023-02-09T01:40:49.301Z,45.74
2023-02-09T01:41:51.337Z,44.75
2023-02-09T01:42:53.302Z,43.93
2023-02-09T01:44:07.965Z,43.18
2023-02-09T01:45:43.950Z,42.70
2023-02-09T01:46:45.805Z,42.55
2023-02-09T01:47:56.340Z,43.58
2023-02-09T01:49:27.937Z,45.90
2023-02-09T01:50:36.447Z,52.78
2023-02-09T01:51:55.665Z,61.35
2023-02-09T01:52:57.937Z,66.32
2023-02-09T01:54:04.920Z,66.66
2023-02-09T01:55:17.532Z,65.22
2023-02-09T01:56:28.681Z,59.73
2023-02-09T01:57:48.195Z,58.69
2023-02-09T01:58:50.640Z,54.59
2023-02-09T02:00:00.738Z,54.76
2023-02-09T02:01:04.181Z,52.94
2023-02-09T02:02:08.759Z,51.70
2023-02-09T02:03:18.268Z,49.90
2023-02-09T02:04:22.676Z,50.40
2023-02-09T02:05:26.136Z,49.53
2023-02-09T02:06:28.702Z,48.05
2023-02-09T02:07:44.145Z,46.85
2023-02-09T02:08:56.636Z,46.32
2023-02-09T02:09:58.512Z,44.35
2023-02-09T02:11:01.594Z,43.91
2023-02-09T02:12:05.328Z,44.21
2023-02-09T02:13:07.196Z,45.10
2023-02-09T02:14:35.599Z,44.70
2023-02-09T02:16:19.690Z,43.90
2023-02-09T02:17:43.783Z,42.90
2023-02-09T02:19:23.905Z,43.36
2023-02-09T02:20:57.369Z,45.04
2023-02-09T02:22:46.901Z,45.03
2023-02-09T02:24:21.881Z,45.66
2023-02-09T02:25:23.625Z,47.84
2023-02-09T02:26:45.797Z,49.91
2023-02-09T02:27:56.517Z,52.24
2023-02-09T02:29:04.666Z,57.17
2023-02-09T02:30:20.342Z,56.31
2023-02-09T02:31:36.436Z,52.67
2023-02-09T02:33:07.294Z,50.52
2023-02-09T02:34:26.800Z,49.45
2023-02-09T02:35:54.777Z,44.85
2023-02-09T02:37:16.562Z,48.57
2023-02-09T02:38:24.597Z,47.75
2023-02-09T02:39:56.989Z,48.05
2023-02-09T02:41:20.682Z,48.77
2023-02-09T02:42:51.671Z,47.54
2023-02-09T02:44:12.641Z,48.26
2023-02-09T02:45:34.205Z,46.54
2023-02-09T02:46:45.352Z,48.53
2023-02-09T02:47:57.498Z,48.62
2023-02-09T02:49:10.689Z,49.00
2023-02-09T02:50:22.401Z,49.43
2023-02-09T02:51:53.728Z,48.64
2023-02-09T02:53:02.929Z,47.31
2023-02-09T02:54:11.546Z,47.34
2023-02-09T02:55:22.116Z,47.37
2023-02-09T02:56:36.665Z,48.53
2023-02-09T02:57:45.682Z,50.63
2023-02-09T02:58:51.121Z,50.79
2023-02-09T03:00:03.184Z,49.22
2023-02-09T03:01:13.181Z,49.46
2023-02-09T03:02:26.356Z,48.74
2023-02-09T03:03:37.611Z,47.71
2023-02-09T03:04:41.444Z,46.98
2023-02-09T03:05:45.497Z,47.27
2023-02-09T03:06:47.716Z,47.40
2023-02-09T03:07:50.029Z,48.11
2023-02-09T03:08:57.793Z,50.60
2023-02-09T03:10:01.016Z,51.90
2023-02-09T03:11:05.111Z,52.89
2023-02-09T03:12:25.766Z,56.69
2023-02-09T03:13:54.719Z,60.43
2023-02-09T03:15:15.801Z,62.21
2023-02-09T03:16:29.437Z,60.95
2023-02-09T03:17:54.646Z,59.95
2023-02-09T03:19:06.890Z,62.73
2023-02-09T03:20:28.303Z,61.29
2023-02-09T03:22:02.916Z,59.17
2023-02-09T03:23:13.335Z,54.58
2023-02-09T03:24:29.837Z,51.32
2023-02-09T03:25:38.488Z,48.55
2023-02-09T03:26:55.507Z,47.10
2023-02-09T03:28:22.741Z,47.49
2023-02-09T03:29:28.788Z,46.79
2023-02-09T03:30:33.802Z,46.50
2023-02-09T03:31:37.485Z,44.36
2023-02-09T03:32:42.187Z,44.83
2023-02-09T03:33:44.541Z,44.83
2023-02-09T03:34:46.522Z,45.02
2023-02-09T03:35:56.433Z,44.76
2023-02-09T03:36:58.664Z,45.24
2023-02-09T03:38:01.644Z,44.26
2023-02-09T03:39:04.007Z,43.77
2023-02-09T03:40:06.713Z,43.19
2023-02-09T03:41:08.851Z,42.30
2023-02-09T03:42:10.954Z,43.72
2023-02-09T03:43:13.797Z,42.23
2023-02-09T03:44:28.369Z,42.56
2023-02-09T03:45:30.369Z,42.15
2023-02-09T03:46:33.686Z,43.18
2023-02-09T03:47:35.562Z,43.58
2023-02-09T03:48:38.484Z,42.55
2023-02-09T03:49:42.520Z,41.08
2023-02-09T03:50:44.863Z,43.63
2023-02-09T03:51:46.996Z,43.44
2023-02-09T03:52:48.819Z,44.20
2023-02-09T03:53:50.762Z,43.77
2023-02-09T03:54:52.645Z,44.54
2023-02-09T03:55:54.554Z,44.36
2023-02-09T03:56:57.862Z,42.58
2023-02-09T03:58:00.561Z,42.10
2023-02-09T03:59:02.553Z,43.36
2023-02-09T04:00:05.296Z,41.81
2023-02-09T04:01:13.710Z,40.84
2023-02-09T04:02:16.009Z,42.75
2023-02-09T04:03:17.928Z,41.22
2023-02-09T04:04:20.922Z,42.93
2023-02-09T04:05:23.104Z,45.05
2023-02-09T04:06:25.363Z,43.82
2023-02-09T04:07:27.828Z,44.77
2023-02-09T04:08:30.139Z,44.93
2023-02-09T04:09:32.125Z,43.60
2023-02-09T04:10:33.971Z,45.27
2023-02-09T04:11:35.738Z,46.13
2023-02-09T04:12:37.618Z,46.84
2023-02-09T04:13:39.457Z,45.19
2023-02-09T04:14:41.248Z,45.82
2023-02-09T04:15:43.272Z,45.25
2023-02-09T04:16:45.300Z,44.58
2023-02-09T04:17:49.396Z,45.60
2023-02-09T04:18:53.020Z,44.20
2023-02-09T04:19:54.808Z,44.83
2023-02-09T04:20:56.742Z,45.00
2023-02-09T04:21:59.083Z,45.88
2023-02-09T04:23:03.719Z,46.27
2023-02-09T04:24:06.423Z,46.77
2023-02-09T04:25:08.418Z,45.70
2023-02-09T04:26:10.312Z,46.23
2023-02-09T04:27:12.179Z,47.22
2023-02-09T04:28:14.037Z,46.44
2023-02-09T04:29:16.255Z,44.92
2023-02-09T04:30:18.442Z,45.51
2023-02-09T04:31:20.704Z,46.85
2023-02-09T04:32:22.832Z,44.81
2023-02-09T04:33:25.637Z,44.00
2023-02-09T04:34:27.816Z,43.78
2023-02-09T04:35:29.712Z,45.01
2023-02-09T04:36:31.667Z,43.73
2023-02-09T04:37:33.540Z,43.90
2023-02-09T04:38:36.629Z,43.86
2023-02-09T04:39:38.442Z,42.80
2023-02-09T04:40:40.419Z,41.84
2023-02-09T04:41:42.579Z,42.57
2023-02-09T04:42:46.141Z,44.34
2023-02-09T04:43:48.595Z,44.74
2023-02-09T04:44:50.667Z,45.69
2023-02-09T04:45:52.995Z,47.79
2023-02-09T04:46:55.219Z,46.19
2023-02-09T04:47:57.158Z,46.41
2023-02-09T04:48:59.040Z,45.42
2023-02-09T04:50:01.018Z,44.71
2023-02-09T04:51:02.888Z,43.74
2023-02-09T04:52:04.889Z,43.21
2023-02-09T04:53:06.952Z,43.75
2023-02-09T04:54:08.883Z,45.45
2023-02-09T04:55:10.706Z,44.23
2023-02-09T04:56:15.557Z,43.31
2023-02-09T04:57:36.358Z,43.24
2023-02-09T04:58:57.034Z,43.60
2023-02-09T04:59:59.110Z,45.41
2023-02-09T05:01:03.185Z,44.74
2023-02-09T05:02:05.404Z,45.78
2023-02-09T05:03:08.110Z,46.87
2023-02-09T05:04:10.180Z,44.76
2023-02-09T05:05:12.239Z,45.03
2023-02-09T05:06:14.614Z,43.79
2023-02-09T05:07:16.879Z,42.15
2023-02-09T05:08:18.848Z,42.46
2023-02-09T05:09:21.011Z,43.96
2023-02-09T05:10:23.241Z,43.79
2023-02-09T05:11:25.735Z,43.84
2023-02-09T05:12:27.738Z,44.47
2023-02-09T05:13:29.835Z,43.77
2023-02-09T05:14:31.757Z,45.35
2023-02-09T05:15:33.624Z,45.64
2023-02-09T05:16:37.049Z,45.98
2023-02-09T05:17:40.320Z,47.13
2023-02-09T05:18:42.153Z,46.10
2023-02-09T05:19:44.037Z,46.42
2023-02-09T05:20:47.973Z,47.25
2023-02-09T05:21:49.865Z,47.31
2023-02-09T05:22:51.680Z,44.13
2023-02-09T05:23:53.667Z,43.88
2023-02-09T05:24:55.611Z,43.07
2023-02-09T05:25:57.861Z,45.84
2023-02-09T05:26:59.879Z,45.41
2023-02-09T05:28:02.220Z,47.58
2023-02-09T05:29:04.704Z,46.59
2023-02-09T05:30:07.113Z,46.92
2023-02-09T05:31:09.116Z,46.48
2023-02-09T05:32:11.268Z,46.86
2023-02-09T05:33:13.271Z,46.51
2023-02-09T05:34:15.042Z,44.52
2023-02-09T05:35:17.410Z,47.04
2023-02-09T05:36:19.182Z,46.89
2023-02-09T05:37:21.268Z,45.57
2023-02-09T05:38:23.763Z,45.90
2023-02-09T05:39:25.505Z,45.61
2023-02-09T05:40:27.469Z,43.25
2023-02-09T05:41:47.917Z,44.65
2023-02-09T05:42:49.882Z,42.52
2023-02-09T05:43:51.704Z,43.91
2023-02-09T05:44:53.596Z,53.07
2023-02-09T05:45:55.669Z,56.04
2023-02-09T05:46:57.642Z,80.84
2023-02-09T05:47:59.524Z,70.62
2023-02-09T05:49:01.527Z,62.16
2023-02-09T05:50:04.355Z,54.02
2023-02-09T05:51:06.665Z,48.90
2023-02-09T05:52:09.566Z,45.69
2023-02-09T05:53:12.901Z,46.72
2023-02-09T05:54:15.194Z,46.24
2023-02-09T05:55:17.573Z,46.92
2023-02-09T05:56:20.423Z,47.16
2023-02-09T05:57:22.322Z,47.10
2023-02-09T05:58:24.250Z,45.90
2023-02-09T05:59:26.249Z,46.21
2023-02-09T06:00:29.909Z,47.77
2023-02-09T06:01:31.980Z,47.40
2023-02-09T06:02:33.771Z,49.00
2023-02-09T06:03:35.671Z,49.34
2023-02-09T06:04:37.948Z,48.94
2023-02-09T06:05:39.935Z,49.67
2023-02-09T06:06:42.475Z,48.01
2023-02-09T06:07:44.316Z,48.34
2023-02-09T06:08:46.176Z,46.80
2023-02-09T06:09:47.993Z,47.55
2023-02-09T06:10:49.766Z,48.32
2023-02-09T06:11:52.798Z,48.19
2023-02-09T06:12:54.568Z,47.39
2023-02-09T06:13:56.340Z,47.86
2023-02-09T06:14:58.215Z,46.12
2023-02-09T06:16:00.282Z,46.28
2023-02-09T06:17:02.518Z,47.29
2023-02-09T06:18:04.643Z,47.92
2023-02-09T06:19:07.306Z,48.78
2023-02-09T06:20:09.940Z,48.60
2023-02-09T06:21:12.226Z,49.44
2023-02-09T06:22:14.124Z,50.37
2023-02-09T06:23:16.010Z,54.13
2023-02-09T06:24:18.299Z,52.98
2023-02-09T06:25:20.366Z,52.76
2023-02-09T06:26:22.299Z,53.40
2023-02-09T06:27:24.185Z,52.54
2023-02-09T06:28:26.167Z,53.17
2023-02-09T06:29:28.057Z,53.54
2023-02-09T06:30:30.084Z,50.75
2023-02-09T06:31:33.608Z,48.87
2023-02-09T06:32:35.945Z,51.62
2023-02-09T06:33:39.428Z,51.80
2023-02-09T06:34:41.364Z,51.22
2023-02-09T06:35:43.690Z,49.11
2023-02-09T06:36:45.615Z,49.38
2023-02-09T06:37:47.490Z,50.98
2023-02-09T06:38:49.434Z,53.00
2023-02-09T06:39:51.245Z,52.80
2023-02-09T06:40:53.152Z,55.06
2023-02-09T06:41:55.404Z,57.10
2023-02-09T06:42:57.536Z,56.05
2023-02-09T06:43:59.475Z,55.55
2023-02-09T06:45:01.695Z,52.63
2023-02-09T06:46:12.588Z,55.22
2023-02-09T06:47:14.423Z,49.89
2023-02-09T06:48:16.267Z,52.18
2023-02-09T06:49:19.011Z,52.50
2023-02-09T06:50:21.470Z,54.78
2023-02-09T06:51:23.546Z,51.77
2023-02-09T06:52:25.565Z,50.96
2023-02-09T06:53:27.577Z,50.45
2023-02-09T06:54:29.487Z,50.91
2023-02-09T06:55:32.268Z,50.03
2023-02-09T06:56:34.211Z,50.85
2023-02-09T06:57:36.405Z,49.60
2023-02-09T06:58:39.977Z,51.31
2023-02-09T06:59:42.017Z,51.67
2023-02-09T07:00:44.150Z,53.12
2023-02-09T07:01:46.219Z,52.29
2023-02-09T07:02:48.971Z,51.87
2023-02-09T07:03:51.089Z,52.18
2023-02-09T07:04:52.975Z,51.11
2023-02-09T07:05:54.818Z,51.42
2023-02-09T07:06:56.624Z,52.79
2023-02-09T07:07:58.566Z,51.09
2023-02-09T07:09:00.811Z,51.14
2023-02-09T07:10:05.276Z,51.89
2023-02-09T07:11:11.215Z,52.04
2023-02-09T07:12:13.125Z,51.79
2023-02-09T07:13:15.102Z,52.01
2023-02-09T07:14:17.130Z,53.94
2023-02-09T07:15:19.227Z,54.04
2023-02-09T07:16:21.461Z,51.56
2023-02-09T07:17:23.477Z,51.04
2023-02-09T07:18:26.552Z,51.66
2023-02-09T07:19:28.524Z,49.67
2023-02-09T07:20:30.358Z,50.78
2023-02-09T07:21:32.292Z,50.17
2023-02-09T07:22:34.884Z,48.76
2023-02-09T07:23:38.023Z,47.20
2023-02-09T07:24:40.140Z,49.05
2023-02-09T07:25:41.918Z,49.01
2023-02-09T07:26:43.713Z,49.97
2023-02-09T07:27:45.569Z,49.11
2023-02-09T07:28:47.694Z,49.59
2023-02-09T07:29:49.456Z,51.26
2023-02-09T07:30:53.249Z,49.42
2023-02-09T07:31:55.217Z,51.63
2023-02-09T07:32:57.117Z,51.63
2023-02-09T07:33:59.068Z,51.25
2023-02-09T07:35:00.858Z,50.56
2023-02-09T07:36:06.296Z,50.26
2023-02-09T07:37:08.694Z,50.01
2023-02-09T07:38:11.193Z,47.80
2023-02-09T07:39:13.429Z,48.91
2023-02-09T07:40:15.723Z,48.33
2023-02-09T07:41:21.781Z,47.36
2023-02-09T07:42:23.671Z,47.31
2023-02-09T07:43:32.119Z,48.12
2023-02-09T07:44:34.034Z,48.52
2023-02-09T07:45:35.898Z,50.01
2023-02-09T07:46:38.038Z,47.36
2023-02-09T07:47:39.975Z,47.43
2023-02-09T07:48:41.991Z,47.07
2023-02-09T07:49:43.914Z,47.01
2023-02-09T07:50:50.126Z,46.76
2023-02-09T07:51:52.116Z,46.28
2023-02-09T07:52:55.154Z,47.79
2023-02-09T07:53:59.551Z,48.24
2023-02-09T07:55:01.564Z,48.46
2023-02-09T07:56:06.077Z,47.79
2023-02-09T07:57:07.911Z,47.14
2023-02-09T07:58:10.012Z,48.29
2023-02-09T07:59:11.821Z,47.08
2023-02-09T08:00:14.818Z,46.82
2023-02-09T08:01:20.983Z,46.13
2023-02-09T08:02:35.668Z,47.81
2023-02-09T08:03:40.009Z,46.55
2023-02-09T08:04:43.710Z,46.48
2023-02-09T08:06:08.697Z,49.90
2023-02-09T08:07:10.529Z,49.72
2023-02-09T08:08:12.330Z,53.79
2023-02-09T08:09:16.836Z,50.42
2023-02-09T08:10:19.771Z,46.90
2023-02-09T08:11:29.188Z,46.52
2023-02-09T08:12:51.186Z,47.44
2023-02-09T08:13:56.819Z,51.00
2023-02-09T08:14:58.750Z,45.52
2023-02-09T08:16:05.073Z,44.97
2023-02-09T08:17:24.458Z,46.83
2023-02-09T08:18:37.989Z,48.22
2023-02-09T08:19:39.912Z,43.15
2023-02-09T08:20:45.030Z,46.30
2023-02-09T08:21:49.590Z,45.63
2023-02-09T08:22:56.093Z,44.85
2023-02-09T08:24:00.192Z,44.25
2023-02-09T08:25:04.144Z,48.12
2023-02-09T08:26:11.461Z,45.67
2023-02-09T08:27:13.517Z,42.74
2023-02-09T08:28:16.068Z,44.20
2023-02-09T08:29:18.049Z,42.47
2023-02-09T08:30:21.115Z,43.25
2023-02-09T08:31:23.540Z,44.42
2023-02-09T08:32:25.646Z,44.62
2023-02-09T08:33:27.461Z,43.69
2023-02-09T08:34:29.264Z,44.88
2023-02-09T08:35:31.782Z,41.28
2023-02-09T08:36:34.535Z,44.43
2023-02-09T08:37:36.365Z,42.68
2023-02-09T08:38:38.813Z,44.88
2023-02-09T08:39:40.754Z,43.33
2023-02-09T08:40:44.197Z,43.37
2023-02-09T08:41:46.469Z,43.57
2023-02-09T08:42:48.472Z,42.87
2023-02-09T08:43:51.771Z,45.53
2023-02-09T08:44:53.546Z,45.33
2023-02-09T08:45:55.612Z,44.99
2023-02-09T08:46:57.910Z,46.27
2023-02-09T08:48:00.095Z,44.97
2023-02-09T08:49:02.400Z,44.33
2023-02-09T08:50:05.190Z,46.24
2023-02-09T08:51:09.457Z,44.91
2023-02-09T08:52:11.329Z,44.49
2023-02-09T08:53:13.226Z,45.42
2023-02-09T08:54:16.012Z,44.53
2023-02-09T08:55:17.845Z,45.33
2023-02-09T08:56:56.197Z,46.99
2023-02-09T08:57:56.760Z,43.99
2023-02-09T08:58:57.325Z,45.05
2023-02-09T08:59:58.141Z,43.46
2023-02-09T09:01:00.039Z,45.37
2023-02-09T09:02:00.591Z,45.59
2023-02-09T09:03:05.079Z,46.83
2023-02-09T09:04:06.880Z,46.40
2023-02-09T09:05:08.185Z,47.44
2023-02-09T09:06:10.986Z,47.28
2023-02-09T09:07:11.444Z,50.42
2023-02-09T09:08:11.951Z,48.30
2023-02-09T09:09:12.993Z,47.18
2023-02-09T09:10:13.409Z,44.14
2023-02-09T09:11:14.197Z,49.06
2023-02-09T09:12:14.716Z,47.15
2023-02-09T09:13:15.343Z,47.80
2023-02-09T09:14:16.002Z,46.86
2023-02-09T09:15:16.735Z,46.43
2023-02-09T09:16:20.846Z,45.34
2023-02-09T09:17:21.743Z,45.43
2023-02-09T09:18:24.312Z,47.25
2023-02-09T09:19:25.435Z,48.62
2023-02-09T09:20:26.170Z,48.47
2023-02-09T09:21:26.726Z,46.50
2023-02-09T09:22:27.277Z,47.28
2023-02-09T09:23:28.149Z,46.85
2023-02-09T09:24:30.196Z,45.34
2023-02-09T09:25:30.676Z,47.93
2023-02-09T09:26:32.921Z,48.45
2023-02-09T09:27:34.542Z,46.13
2023-02-09T09:28:35.831Z,46.58
2023-02-09T09:29:39.492Z,45.75
2023-02-09T09:30:40.007Z,45.79
2023-02-09T09:31:41.297Z,45.91
2023-02-09T09:32:42.027Z,45.01
2023-02-09T09:33:44.070Z,46.27
2023-02-09T09:34:44.552Z,46.07
2023-02-09T09:35:45.360Z,44.99
2023-02-09T09:36:46.069Z,43.68
2023-02-09T09:37:47.982Z,46.11
2023-02-09T09:38:48.721Z,46.02
2023-02-09T09:39:49.838Z,44.45
2023-02-09T09:40:50.326Z,44.40
2023-02-09T09:41:58.726Z,44.48
2023-02-09T09:43:05.417Z,43.92
2023-02-09T09:44:28.837Z,41.58
2023-02-09T09:45:34.659Z,41.47
2023-02-09T09:46:41.251Z,40.45
2023-02-09T09:47:44.198Z,42.03
2023-02-09T09:48:52.457Z,42.04
2023-02-09T09:49:53.336Z,44.12
2023-02-09T09:51:01.724Z,43.09
2023-02-09T09:52:14.746Z,42.13
2023-02-09T09:53:34.585Z,38.99
2023-02-09T09:54:36.997Z,38.64
2023-02-09T09:55:38.493Z,38.64
2023-02-09T09:56:40.507Z,37.11
2023-02-09T09:57:45.338Z,37.86
2023-02-09T09:58:48.608Z,37.94
2023-02-09T09:59:49.068Z,39.87
2023-02-09T10:00:49.968Z,38.20
2023-02-09T10:01:52.987Z,39.17
2023-02-09T10:02:53.885Z,37.35
2023-02-09T10:04:01.419Z,36.46
2023-02-09T10:05:26.585Z,36.72
2023-02-09T10:06:33.198Z,36.58
2023-02-09T10:07:34.280Z,36.11
2023-02-09T10:08:42.215Z,37.25
2023-02-09T10:09:55.621Z,39.68
2023-02-09T10:10:56.045Z,38.15
2023-02-09T10:12:15.750Z,39.55
2023-02-09T10:13:39.770Z,35.19
2023-02-09T10:14:40.387Z,36.68
2023-02-09T10:15:41.003Z,39.40
2023-02-09T10:16:43.832Z,38.03
2023-02-09T10:17:44.438Z,39.02
2023-02-09T10:18:52.614Z,34.78
2023-02-09T10:20:39.006Z,32.56
2023-02-09T10:21:39.485Z,31.36
2023-02-09T10:22:45.040Z,29.85
2023-02-09T10:24:01.966Z,30.20
2023-02-09T10:25:23.680Z,27.23
2023-02-09T10:26:30.349Z,26.24
2023-02-09T10:27:30.786Z,25.76
2023-02-09T10:28:37.471Z,25.02
2023-02-09T10:29:38.072Z,24.90
2023-02-09T10:30:38.542Z,25.20
2023-02-09T10:31:46.902Z,24.53
2023-02-09T10:32:47.909Z,23.79
2023-02-09T10:33:55.793Z,24.52
2023-02-09T10:34:57.265Z,23.58
2023-02-09T10:36:06.326Z,24.10
2023-02-09T10:37:19.300Z,24.09
2023-02-09T10:38:24.016Z,24.63
2023-02-09T10:39:32.194Z,24.11
2023-02-09T10:40:38.565Z,24.79
2023-02-09T10:41:43.133Z,23.93
2023-02-09T10:43:06.386Z,23.76
2023-02-09T10:44:21.999Z,22.96
2023-02-09T10:45:38.583Z,22.52
2023-02-09T10:46:39.989Z,22.66
2023-02-09T10:47:40.897Z,22.58
2023-02-09T10:48:44.361Z,22.36
2023-02-09T10:50:11.013Z,21.43
2023-02-09T10:51:28.235Z,22.77
2023-02-09T10:52:37.800Z,22.82
2023-02-09T10:54:00.698Z,22.63
2023-02-09T10:55:21.569Z,22.01
2023-02-09T10:56:26.475Z,23.90
2023-02-09T10:57:38.276Z,23.02
2023-02-09T10:58:38.932Z,25.01
2023-02-09T10:59:40.731Z,24.34
2023-02-09T11:00:41.271Z,23.95
2023-02-09T11:01:44.387Z,24.10
2023-02-09T11:02:54.484Z,22.80
2023-02-09T11:04:03.561Z,21.91
2023-02-09T11:05:29.615Z,22.77
2023-02-09T11:06:51.545Z,22.11
2023-02-09T11:08:22.353Z,22.06
2023-02-09T11:09:34.550Z,21.59
2023-02-09T11:10:43.007Z,22.03
2023-02-09T11:11:44.804Z,22.72
2023-02-09T11:12:46.248Z,23.99
2023-02-09T11:13:46.833Z,24.60
2023-02-09T11:14:48.403Z,23.05
2023-02-09T11:16:22.128Z,22.05
2023-02-09T11:17:36.119Z,21.37
2023-02-09T11:18:41.969Z,21.69
2023-02-09T11:20:01.112Z,20.88
2023-02-09T11:21:33.192Z,22.03
2023-02-09T11:22:53.349Z,21.16
2023-02-09T11:23:56.581Z,20.58
2023-02-09T11:25:15.208Z,20.68
2023-02-09T11:26:50.248Z,20.85
2023-02-09T11:28:16.432Z,20.39
2023-02-09T11:29:29.368Z,20.64
2023-02-09T11:30:38.581Z,20.57
2023-02-09T11:31:57.959Z,20.39
2023-02-09T11:33:33.446Z,20.56
2023-02-09T11:34:58.669Z,20.20
2023-02-09T11:36:36.987Z,21.72
2023-02-09T11:37:43.597Z,20.65
2023-02-09T11:38:54.250Z,21.19
2023-02-09T11:40:03.898Z,22.29
2023-02-09T11:41:31.575Z,21.29
2023-02-09T11:42:45.136Z,20.63
2023-02-09T11:43:50.858Z,20.64
2023-02-09T11:44:54.755Z,20.62
2023-02-09T11:46:05.115Z,20.80
2023-02-09T11:47:10.832Z,21.64
2023-02-09T11:48:22.303Z,22.87
2023-02-09T11:49:28.809Z,21.71
2023-02-09T11:50:57.297Z,22.50
2023-02-09T11:52:00.077Z,21.74
2023-02-09T11:53:17.558Z,22.42
2023-02-09T11:54:29.450Z,22.46
2023-02-09T11:55:41.125Z,22.29
2023-02-09T11:56:49.767Z,21.62
2023-02-09T11:58:05.478Z,23.66
2023-02-09T11:59:30.437Z,22.51
2023-02-09T12:00:54.475Z,21.22
2023-02-09T12:02:22.745Z,20.72
2023-02-09T12:03:24.520Z,22.05
2023-02-09T12:04:53.816Z,21.08
2023-02-09T12:05:56.308Z,21.06
2023-02-09T12:07:19.540Z,19.58
2023-02-09T12:08:46.599Z,20.22
2023-02-09T12:10:38.939Z,21.16
2023-02-09T12:12:06.251Z,21.00
2023-02-09T12:13:06.680Z,21.85
2023-02-09T12:14:38.170Z,22.14
2023-02-09T12:15:44.930Z,26.48
2023-02-09T12:17:05.295Z,25.30
2023-02-09T12:18:14.274Z,23.66
2023-02-09T12:19:27.568Z,23.63
2023-02-09T12:20:28.519Z,24.05
2023-02-09T12:21:37.579Z,22.20
2023-02-09T12:22:57.516Z,20.85
2023-02-09T12:23:59.987Z,21.81
2023-02-09T12:25:42.134Z,19.44
2023-02-09T12:26:53.098Z,21.75
2023-02-09T12:28:13.937Z,20.60
2023-02-09T12:29:23.619Z,19.72
2023-02-09T12:30:39.354Z,19.52
2023-02-09T12:32:03.163Z,20.83
2023-02-09T12:33:21.833Z,19.50
2023-02-09T12:34:37.321Z,19.96
2023-02-09T12:35:40.746Z,20.43
2023-02-09T12:37:09.080Z,21.12
2023-02-09T12:38:16.311Z,20.78
2023-02-09T12:39:24.434Z,21.15
2023-02-09T12:40:36.185Z,22.57
2023-02-09T12:41:42.224Z,24.04
2023-02-09T12:42:45.917Z,23.66
2023-02-09T12:43:47.256Z,23.63
2023-02-09T12:44:56.798Z,21.59
2023-02-09T12:46:14.817Z,24.62
2023-02-09T12:47:41.575Z,25.15
2023-02-09T12:49:00.265Z,22.73
2023-02-09T12:50:18.662Z,21.16
2023-02-09T12:51:49.947Z,19.41
2023-02-09T12:53:21.455Z,18.84
2023-02-09T12:54:43.578Z,18.19
2023-02-09T12:56:09.002Z,18.22
2023-02-09T12:57:15.503Z,17.89
2023-02-09T12:58:44.432Z,18.53
2023-02-09T12:59:51.032Z,18.13
2023-02-09T13:00:54.580Z,19.22
2023-02-09T13:02:07.420Z,19.48
2023-02-09T13:03:13.731Z,17.82
2023-02-09T13:04:15.550Z,17.53
2023-02-09T13:05:16.002Z,16.49
2023-02-09T13:06:45.230Z,17.42
2023-02-09T13:08:10.346Z,17.36
2023-02-09T13:09:21.975Z,18.54
2023-02-09T13:10:37.154Z,16.75
2023-02-09T13:11:53.030Z,16.25
2023-02-09T13:13:03.052Z,15.93
2023-02-09T13:14:08.947Z,15.25
2023-02-09T13:15:15.847Z,15.79
2023-02-09T13:16:22.403Z,16.36
2023-02-09T13:17:50.124Z,16.25
2023-02-09T13:19:09.364Z,16.28
2023-02-09T13:20:31.687Z,15.60
2023-02-09T13:21:52.209Z,15.58
2023-02-09T13:23:13.070Z,14.41
2023-02-09T13:24:22.120Z,14.99
2023-02-09T13:25:36.694Z,14.22
2023-02-09T13:26:48.052Z,13.36
2023-02-09T13:27:49.740Z,14.19
2023-02-09T13:29:20.309Z,15.13
2023-02-09T13:30:31.603Z,14.32
2023-02-09T13:31:39.479Z,15.87
2023-02-09T13:32:55.298Z,16.03
2023-02-09T13:34:07.155Z,15.47
2023-02-09T13:35:41.699Z,16.42
2023-02-09T13:36:58.502Z,13.13
2023-02-09T13:38:07.292Z,13.90
2023-02-09T13:39:19.716Z,13.99
2023-02-09T13:40:32.896Z,15.46
2023-02-09T13:41:40.043Z,13.71
2023-02-09T13:42:58.365Z,13.51
2023-02-09T13:43:59.100Z,14.46
2023-02-09T13:44:59.596Z,15.17
2023-02-09T13:46:01.676Z,17.10
2023-02-09T13:47:07.120Z,16.11
2023-02-09T13:48:23.083Z,18.06
2023-02-09T13:49:27.338Z,23.58
2023-02-09T13:50:28.619Z,20.90
2023-02-09T13:51:29.056Z,20.74
2023-02-09T13:52:36.926Z,21.50
2023-02-09T13:53:39.340Z,19.65
2023-02-09T13:54:41.909Z,18.60
2023-02-09T13:55:47.435Z,16.56
2023-02-09T13:56:48.595Z,17.99
2023-02-09T13:57:58.193Z,15.57
2023-02-09T13:59:00.151Z,17.75
2023-02-09T14:00:15.428Z,18.77
2023-02-09T14:01:33.122Z,20.10
2023-02-09T14:02:36.277Z,17.03
2023-02-09T14:03:57.813Z,15.66
2023-02-09T14:05:04.890Z,13.66
2023-02-09T14:06:19.649Z,13.44
2023-02-09T14:07:28.078Z,13.89
2023-02-09T14:08:31.579Z,12.99
2023-02-09T14:09:49.813Z,14.26
2023-02-09T14:11:05.526Z,14.67
2023-02-09T14:12:17.577Z,13.45
2023-02-09T14:13:35.118Z,13.13
2023-02-09T14:15:23.315Z,12.80
2023-02-09T14:16:27.518Z,13.38
2023-02-09T14:17:31.885Z,14.45
2023-02-09T14:18:53.939Z,13.23
2023-02-09T14:19:57.444Z,13.78
2023-02-09T14:21:15.225Z,13.28
2023-02-09T14:22:37.299Z,12.79
2023-02-09T14:23:39.163Z,13.54
2023-02-09T14:24:43.450Z,13.60
2023-02-09T14:26:00.244Z,13.32